Main page
METAR-TAF:

METAR-TAF

Airports :

Santa Maria Airport

Santa Maria, Rio Grande do Sul, Brazil

latitude: 29-43S, longitude: 053-42W, elevation: 85 m

Current weather observation

The report was made 32 minutes ago, at 16:00 UTC
Wind 2 kt from variable directions
Temperature 29°C
Humidity 48%
Pressure 1010 hPa
Visibility 10 km or more
Few clouds at a height of 3000 ft

METAR: SBSM 251600Z VRB02KT 9999 FEW030 29/17 Q1010

Time: 13:32 (16:32 UTC)

Forecast

The report was made 7 hours and 2 minutes ago, at 09:30 UTC
Forecast valid from 25 at 12 UTC to 25 at 24 UTC
Wind 5 kt from the East/Southeast
Visibility 10 km or more
no clouds below 1500 m and no cumulonimbus
Becoming
from 25 at 12 UTC to 25 at 14 UTC
Wind 7 kt from the West/Northwest
Becoming
from 25 at 22 UTC to 25 at 24 UTC
Wind 4 kt from the Southeast

TAF: SBSM 250930Z 2512/2524 12005KT CAVOK TN23/2512Z TX33/2518Z BECMG 2512/2514 29007KT BECMG 2522/2524 13004KT RMK PER

Weather observations and forecasts of more than 4000 airports (METAR and TAF reports).

The available stations are represented by yellow and red dots on the map.

Hover mouse over dot to see the name of the station.

Then click to see weather observations and forecasts.

To change the map : click on the green buttons with a black cross to zoom in, on the green button with a dash to zoom out, or on the green arrows for adjacent maps.


METAR-TAF: